sensor_id;sensor_type;location;lat;lon;timestamp;P1;durP1;ratioP1;P2;durP2;ratioP2
72584;SDS011;60618;40.084;32.908;2023-05-02T00:01:47;5.95;;;2.50;;
72584;SDS011;60618;40.084;32.908;2023-05-02T00:04:14;5.88;;;2.50;;
72584;SDS011;60618;40.084;32.908;2023-05-02T00:06:41;7.37;;;2.93;;
72584;SDS011;60618;40.084;32.908;2023-05-02T00:09:09;6.38;;;2.90;;
72584;SDS011;60618;40.084;32.908;2023-05-02T00:11:35;6.03;;;2.67;;
72584;SDS011;60618;40.084;32.908;2023-05-02T00:14:02;8.23;;;2.78;;
72584;SDS011;60618;40.084;32.908;2023-05-02T00:16:29;7.47;;;2.78;;
72584;SDS011;60618;40.084;32.908;2023-05-02T00:18:58;6.43;;;2.70;;
72584;SDS011;60618;40.084;32.908;2023-05-02T00:21:25;9.50;;;3.50;;
72584;SDS011;60618;40.084;32.908;2023-05-02T00:23:52;8.52;;;3.40;;
72584;SDS011;60618;40.084;32.908;2023-05-02T00:26:19;9.30;;;3.35;;
72584;SDS011;60618;40.084;32.908;2023-05-02T00:28:46;6.95;;;2.78;;
72584;SDS011;60618;40.084;32.908;2023-05-02T00:31:13;6.93;;;2.63;;
72584;SDS011;60618;40.084;32.908;2023-05-02T00:33:40;7.30;;;3.03;;
72584;SDS011;60618;40.084;32.908;2023-05-02T00:36:16;6.68;;;2.88;;
72584;SDS011;60618;40.084;32.908;2023-05-02T00:38:44;7.35;;;2.80;;
72584;SDS011;60618;40.084;32.908;2023-05-02T00:41:11;7.20;;;2.63;;
72584;SDS011;60618;40.084;32.908;2023-05-02T00:43:38;6.00;;;2.90;;
72584;SDS011;60618;40.084;32.908;2023-05-02T00:46:05;7.78;;;2.90;;
72584;SDS011;60618;40.084;32.908;2023-05-02T00:48:32;6.88;;;3.00;;
72584;SDS011;60618;40.084;32.908;2023-05-02T00:51:01;6.30;;;3.05;;
72584;SDS011;60618;40.084;32.908;2023-05-02T00:53:30;6.50;;;3.00;;
72584;SDS011;60618;40.084;32.908;2023-05-02T00:55:57;9.70;;;3.83;;
72584;SDS011;60618;40.084;32.908;2023-05-02T00:58:24;9.35;;;3.90;;
72584;SDS011;60618;40.084;32.908;2023-05-02T01:00:58;9.90;;;3.63;;
72584;SDS011;60618;40.084;32.908;2023-05-02T01:03:50;10.20;;;3.53;;
72584;SDS011;60618;40.084;32.908;2023-05-02T01:14:30;15.75;;;6.55;;
72584;SDS011;60618;40.084;32.908;2023-05-02T01:17:09;14.60;;;6.25;;
72584;SDS011;60618;40.084;32.908;2023-05-02T01:19:41;15.38;;;6.82;;
72584;SDS011;60618;40.084;32.908;2023-05-02T01:22:12;15.00;;;6.03;;
72584;SDS011;60618;40.084;32.908;2023-05-02T01:24:44;10.90;;;4.88;;
72584;SDS011;60618;40.084;32.908;2023-05-02T01:30:08;7.30;;;3.53;;
72584;SDS011;60618;40.084;32.908;2023-05-02T01:32:38;9.65;;;4.68;;
72584;SDS011;60618;40.084;32.908;2023-05-02T01:35:07;12.37;;;5.30;;
72584;SDS011;60618;40.084;32.908;2023-05-02T01:37:37;12.02;;;5.43;;
72584;SDS011;60618;40.084;32.908;2023-05-02T01:40:05;13.13;;;6.22;;
72584;SDS011;60618;40.084;32.908;2023-05-02T01:42:35;13.55;;;6.63;;
72584;SDS011;60618;40.084;32.908;2023-05-02T01:45:03;12.57;;;5.90;;
72584;SDS011;60618;40.084;32.908;2023-05-02T01:47:34;7.60;;;4.00;;
72584;SDS011;60618;40.084;32.908;2023-05-02T01:50:05;7.95;;;3.70;;
72584;SDS011;60618;40.084;32.908;2023-05-02T01:52:34;7.22;;;3.30;;
72584;SDS011;60618;40.084;32.908;2023-05-02T01:55:02;8.05;;;3.33;;
72584;SDS011;60618;40.084;32.908;2023-05-02T01:57:31;8.13;;;3.55;;
72584;SDS011;60618;40.084;32.908;2023-05-02T01:59:58;10.40;;;4.00;;
72584;SDS011;60618;40.084;32.908;2023-05-02T02:02:27;8.40;;;3.50;;
72584;SDS011;60618;40.084;32.908;2023-05-02T02:04:55;8.13;;;3.80;;
72584;SDS011;60618;40.084;32.908;2023-05-02T02:07:25;7.90;;;3.92;;
72584;SDS011;60618;40.084;32.908;2023-05-02T02:09:52;7.25;;;3.60;;
72584;SDS011;60618;40.084;32.908;2023-05-02T02:12:24;8.63;;;3.60;;
72584;SDS011;60618;40.084;32.908;2023-05-02T02:15:05;11.38;;;5.35;;
72584;SDS011;60618;40.084;32.908;2023-05-02T02:17:39;11.70;;;5.25;;
72584;SDS011;60618;40.084;32.908;2023-05-02T02:20:10;9.85;;;4.15;;
72584;SDS011;60618;40.084;32.908;2023-05-02T02:22:39;8.02;;;3.75;;
72584;SDS011;60618;40.084;32.908;2023-05-02T02:25:11;8.37;;;3.80;;
72584;SDS011;60618;40.084;32.908;2023-05-02T02:27:42;8.40;;;3.65;;
72584;SDS011;60618;40.084;32.908;2023-05-02T02:30:10;8.55;;;3.58;;
72584;SDS011;60618;40.084;32.908;2023-05-02T02:32:37;7.65;;;3.30;;
72584;SDS011;60618;40.084;32.908;2023-05-02T02:35:04;8.80;;;3.70;;
72584;SDS011;60618;40.084;32.908;2023-05-02T02:37:32;8.30;;;3.50;;
72584;SDS011;60618;40.084;32.908;2023-05-02T02:40:04;6.82;;;3.42;;
72584;SDS011;60618;40.084;32.908;2023-05-02T02:45:43;12.48;;;4.03;;
72584;SDS011;60618;40.084;32.908;2023-05-02T02:48:24;8.25;;;3.28;;
72584;SDS011;60618;40.084;32.908;2023-05-02T02:51:13;7.17;;;3.07;;
72584;SDS011;60618;40.084;32.908;2023-05-02T02:53:57;7.57;;;3.35;;
72584;SDS011;60618;40.084;32.908;2023-05-02T02:56:54;8.50;;;3.22;;
72584;SDS011;60618;40.084;32.908;2023-05-02T02:59:34;6.80;;;3.25;;
72584;SDS011;60618;40.084;32.908;2023-05-02T03:02:05;8.05;;;3.67;;
72584;SDS011;60618;40.084;32.908;2023-05-02T03:04:36;7.73;;;3.47;;
72584;SDS011;60618;40.084;32.908;2023-05-02T03:07:04;8.32;;;3.28;;
72584;SDS011;60618;40.084;32.908;2023-05-02T03:09:41;7.88;;;3.15;;
72584;SDS011;60618;40.084;32.908;2023-05-02T03:12:09;8.10;;;3.22;;
72584;SDS011;60618;40.084;32.908;2023-05-02T03:14:36;8.73;;;3.25;;
72584;SDS011;60618;40.084;32.908;2023-05-02T03:17:05;7.63;;;3.50;;
72584;SDS011;60618;40.084;32.908;2023-05-02T03:19:32;7.65;;;3.33;;
72584;SDS011;60618;40.084;32.908;2023-05-02T03:21:59;6.95;;;3.35;;
72584;SDS011;60618;40.084;32.908;2023-05-02T03:24:26;8.10;;;3.20;;
72584;SDS011;60618;40.084;32.908;2023-05-02T03:26:53;14.00;;;5.57;;
72584;SDS011;60618;40.084;32.908;2023-05-02T03:29:21;12.63;;;6.47;;
72584;SDS011;60618;40.084;32.908;2023-05-02T03:31:48;11.70;;;6.05;;
72584;SDS011;60618;40.084;32.908;2023-05-02T03:34:15;8.88;;;4.22;;
72584;SDS011;60618;40.084;32.908;2023-05-02T03:36:42;10.32;;;3.50;;
72584;SDS011;60618;40.084;32.908;2023-05-02T03:39:09;9.90;;;3.63;;
72584;SDS011;60618;40.084;32.908;2023-05-02T03:41:35;7.47;;;3.50;;
72584;SDS011;60618;40.084;32.908;2023-05-02T03:44:02;7.05;;;3.00;;
72584;SDS011;60618;40.084;32.908;2023-05-02T03:46:29;8.25;;;2.80;;
72584;SDS011;60618;40.084;32.908;2023-05-02T03:48:57;9.68;;;4.70;;
72584;SDS011;60618;40.084;32.908;2023-05-02T03:51:23;10.55;;;4.57;;
72584;SDS011;60618;40.084;32.908;2023-05-02T03:53:50;9.33;;;4.43;;
72584;SDS011;60618;40.084;32.908;2023-05-02T03:56:17;12.55;;;5.50;;
72584;SDS011;60618;40.084;32.908;2023-05-02T03:58:45;13.27;;;5.72;;
72584;SDS011;60618;40.084;32.908;2023-05-02T04:01:12;8.63;;;4.30;;
72584;SDS011;60618;40.084;32.908;2023-05-02T04:03:40;5.68;;;2.65;;
72584;SDS011;60618;40.084;32.908;2023-05-02T04:06:07;7.50;;;2.43;;
72584;SDS011;60618;40.084;32.908;2023-05-02T04:08:34;15.13;;;6.43;;
72584;SDS011;60618;40.084;32.908;2023-05-02T04:11:01;12.23;;;7.05;;
72584;SDS011;60618;40.084;32.908;2023-05-02T04:13:28;12.63;;;5.85;;
72584;SDS011;60618;40.084;32.908;2023-05-02T04:15:55;12.80;;;5.57;;
72584;SDS011;60618;40.084;32.908;2023-05-02T04:18:22;15.37;;;6.57;;
72584;SDS011;60618;40.084;32.908;2023-05-02T04:20:49;15.13;;;6.30;;
72584;SDS011;60618;40.084;32.908;2023-05-02T04:23:15;11.68;;;5.55;;
72584;SDS011;60618;40.084;32.908;2023-05-02T04:25:52;9.25;;;3.95;;
72584;SDS011;60618;40.084;32.908;2023-05-02T04:28:20;8.75;;;3.13;;
72584;SDS011;60618;40.084;32.908;2023-05-02T04:30:48;7.23;;;2.80;;
72584;SDS011;60618;40.084;32.908;2023-05-02T04:33:16;6.38;;;2.60;;
72584;SDS011;60618;40.084;32.908;2023-05-02T04:35:43;5.50;;;2.55;;
72584;SDS011;60618;40.084;32.908;2023-05-02T04:38:11;6.45;;;2.53;;
72584;SDS011;60618;40.084;32.908;2023-05-02T04:40:38;6.38;;;2.45;;
72584;SDS011;60618;40.084;32.908;2023-05-02T04:43:05;6.47;;;2.20;;
72584;SDS011;60618;40.084;32.908;2023-05-02T04:45:35;6.43;;;2.33;;
72584;SDS011;60618;40.084;32.908;2023-05-02T04:48:03;4.88;;;1.92;;
72584;SDS011;60618;40.084;32.908;2023-05-02T04:50:30;5.57;;;1.98;;
72584;SDS011;60618;40.084;32.908;2023-05-02T04:52:57;5.05;;;1.50;;
72584;SDS011;60618;40.084;32.908;2023-05-02T04:55:24;6.57;;;2.00;;
72584;SDS011;60618;40.084;32.908;2023-05-02T04:57:50;4.85;;;1.65;;
72584;SDS011;60618;40.084;32.908;2023-05-02T05:00:17;7.65;;;1.80;;
72584;SDS011;60618;40.084;32.908;2023-05-02T05:02:44;4.28;;;1.70;;
72584;SDS011;60618;40.084;32.908;2023-05-02T05:05:11;5.80;;;1.90;;
72584;SDS011;60618;40.084;32.908;2023-05-02T05:07:38;4.37;;;1.70;;
72584;SDS011;60618;40.084;32.908;2023-05-02T05:10:05;6.03;;;1.75;;
72584;SDS011;60618;40.084;32.908;2023-05-02T05:12:32;6.50;;;2.10;;
72584;SDS011;60618;40.084;32.908;2023-05-02T05:14:59;5.32;;;2.10;;
72584;SDS011;60618;40.084;32.908;2023-05-02T05:17:26;4.40;;;1.73;;
72584;SDS011;60618;40.084;32.908;2023-05-02T05:19:53;4.10;;;1.70;;
72584;SDS011;60618;40.084;32.908;2023-05-02T05:22:20;5.65;;;2.10;;
72584;SDS011;60618;40.084;32.908;2023-05-02T05:24:53;4.25;;;1.92;;
72584;SDS011;60618;40.084;32.908;2023-05-02T05:27:20;6.05;;;2.10;;
72584;SDS011;60618;40.084;32.908;2023-05-02T05:29:47;6.10;;;2.05;;
72584;SDS011;60618;40.084;32.908;2023-05-02T05:32:14;5.03;;;1.83;;
72584;SDS011;60618;40.084;32.908;2023-05-02T05:34:41;8.30;;;2.00;;
72584;SDS011;60618;40.084;32.908;2023-05-02T05:37:07;6.20;;;1.90;;
72584;SDS011;60618;40.084;32.908;2023-05-02T05:39:34;4.68;;;2.20;;
72584;SDS011;60618;40.084;32.908;2023-05-02T05:42:01;19.35;;;2.95;;
72584;SDS011;60618;40.084;32.908;2023-05-02T05:44:28;8.03;;;2.50;;
72584;SDS011;60618;40.084;32.908;2023-05-02T05:46:55;5.30;;;2.30;;
72584;SDS011;60618;40.084;32.908;2023-05-02T05:49:22;6.85;;;2.55;;
72584;SDS011;60618;40.084;32.908;2023-05-02T05:51:49;8.18;;;2.60;;
72584;SDS011;60618;40.084;32.908;2023-05-02T05:54:16;6.00;;;2.70;;
72584;SDS011;60618;40.084;32.908;2023-05-02T05:56:43;6.20;;;2.87;;
72584;SDS011;60618;40.084;32.908;2023-05-02T05:59:10;8.82;;;3.03;;
72584;SDS011;60618;40.084;32.908;2023-05-02T06:01:37;7.80;;;2.60;;
72584;SDS011;60618;40.084;32.908;2023-05-02T06:04:05;8.60;;;2.60;;
72584;SDS011;60618;40.084;32.908;2023-05-02T06:06:32;5.65;;;2.50;;
72584;SDS011;60618;40.084;32.908;2023-05-02T06:08:59;6.93;;;2.60;;
72584;SDS011;60618;40.084;32.908;2023-05-02T06:11:27;5.55;;;2.45;;
72584;SDS011;60618;40.084;32.908;2023-05-02T06:13:54;6.82;;;2.40;;
72584;SDS011;60618;40.084;32.908;2023-05-02T06:16:21;7.78;;;2.45;;
72584;SDS011;60618;40.084;32.908;2023-05-02T06:18:49;6.00;;;2.20;;
72584;SDS011;60618;40.084;32.908;2023-05-02T06:21:17;5.40;;;2.37;;
72584;SDS011;60618;40.084;32.908;2023-05-02T06:23:43;4.13;;;1.80;;
72584;SDS011;60618;40.084;32.908;2023-05-02T06:26:10;5.35;;;1.98;;
72584;SDS011;60618;40.084;32.908;2023-05-02T06:28:37;4.70;;;1.52;;
72584;SDS011;60618;40.084;32.908;2023-05-02T06:31:04;4.53;;;1.60;;
72584;SDS011;60618;40.084;32.908;2023-05-02T06:33:32;5.20;;;1.50;;
72584;SDS011;60618;40.084;32.908;2023-05-02T06:36:00;3.78;;;1.10;;
72584;SDS011;60618;40.084;32.908;2023-05-02T06:38:27;3.70;;;1.38;;
72584;SDS011;60618;40.084;32.908;2023-05-02T06:40:55;3.40;;;1.30;;
72584;SDS011;60618;40.084;32.908;2023-05-02T06:43:21;4.30;;;1.60;;
72584;SDS011;60618;40.084;32.908;2023-05-02T06:45:51;4.87;;;1.60;;
72584;SDS011;60618;40.084;32.908;2023-05-02T06:48:19;3.53;;;1.48;;
72584;SDS011;60618;40.084;32.908;2023-05-02T06:50:46;3.38;;;1.30;;
72584;SDS011;60618;40.084;32.908;2023-05-02T06:53:14;20.90;;;2.40;;
72584;SDS011;60618;40.084;32.908;2023-05-02T06:55:41;5.22;;;1.40;;
72584;SDS011;60618;40.084;32.908;2023-05-02T06:58:08;3.80;;;1.20;;
72584;SDS011;60618;40.084;32.908;2023-05-02T07:00:35;3.38;;;1.27;;
72584;SDS011;60618;40.084;32.908;2023-05-02T07:03:02;3.53;;;1.10;;
72584;SDS011;60618;40.084;32.908;2023-05-02T07:05:29;3.42;;;1.20;;
72584;SDS011;60618;40.084;32.908;2023-05-02T07:07:56;3.28;;;1.20;;
72584;SDS011;60618;40.084;32.908;2023-05-02T07:10:23;5.80;;;1.23;;
72584;SDS011;60618;40.084;32.908;2023-05-02T07:12:50;7.63;;;1.38;;
72584;SDS011;60618;40.084;32.908;2023-05-02T07:15:17;5.55;;;1.63;;
72584;SDS011;60618;40.084;32.908;2023-05-02T07:17:44;4.72;;;1.50;;
72584;SDS011;60618;40.084;32.908;2023-05-02T07:20:11;4.00;;;1.20;;
72584;SDS011;60618;40.084;32.908;2023-05-02T07:22:38;4.33;;;1.30;;
72584;SDS011;60618;40.084;32.908;2023-05-02T07:25:05;4.45;;;1.20;;
72584;SDS011;60618;40.084;32.908;2023-05-02T07:27:32;4.20;;;1.50;;
72584;SDS011;60618;40.084;32.908;2023-05-02T07:29:59;3.53;;;1.20;;
72584;SDS011;60618;40.084;32.908;2023-05-02T07:32:26;4.18;;;1.30;;
72584;SDS011;60618;40.084;32.908;2023-05-02T07:34:53;4.63;;;1.93;;
72584;SDS011;60618;40.084;32.908;2023-05-02T07:37:23;3.95;;;1.20;;
72584;SDS011;60618;40.084;32.908;2023-05-02T07:39:50;4.20;;;1.30;;
72584;SDS011;60618;40.084;32.908;2023-05-02T07:42:17;5.72;;;1.65;;
72584;SDS011;60618;40.084;32.908;2023-05-02T07:44:44;13.13;;;1.67;;
72584;SDS011;60618;40.084;32.908;2023-05-02T07:47:10;4.20;;;1.27;;
72584;SDS011;60618;40.084;32.908;2023-05-02T07:49:37;3.65;;;1.23;;
72584;SDS011;60618;40.084;32.908;2023-05-02T07:52:04;11.73;;;1.70;;
72584;SDS011;60618;40.084;32.908;2023-05-02T07:54:31;4.65;;;1.50;;
72584;SDS011;60618;40.084;32.908;2023-05-02T07:56:58;6.25;;;1.67;;
72584;SDS011;60618;40.084;32.908;2023-05-02T07:59:25;5.57;;;1.43;;
72584;SDS011;60618;40.084;32.908;2023-05-02T08:01:51;4.75;;;1.20;;
72584;SDS011;60618;40.084;32.908;2023-05-02T08:04:18;3.40;;;1.05;;
72584;SDS011;60618;40.084;32.908;2023-05-02T08:06:45;4.22;;;1.60;;
72584;SDS011;60618;40.084;32.908;2023-05-02T08:09:12;3.65;;;1.30;;
72584;SDS011;60618;40.084;32.908;2023-05-02T08:11:39;4.90;;;1.40;;
72584;SDS011;60618;40.084;32.908;2023-05-02T08:14:06;4.05;;;1.20;;
72584;SDS011;60618;40.084;32.908;2023-05-02T08:16:33;4.65;;;1.25;;
72584;SDS011;60618;40.084;32.908;2023-05-02T08:19:00;5.70;;;1.30;;
72584;SDS011;60618;40.084;32.908;2023-05-02T08:21:27;3.33;;;1.10;;
72584;SDS011;60618;40.084;32.908;2023-05-02T08:23:56;4.80;;;1.40;;
72584;SDS011;60618;40.084;32.908;2023-05-02T08:26:24;5.65;;;1.60;;
72584;SDS011;60618;40.084;32.908;2023-05-02T08:28:51;4.97;;;1.45;;
72584;SDS011;60618;40.084;32.908;2023-05-02T08:31:19;3.90;;;1.30;;
72584;SDS011;60618;40.084;32.908;2023-05-02T08:33:46;4.50;;;1.50;;
72584;SDS011;60618;40.084;32.908;2023-05-02T08:36:14;3.00;;;1.10;;
72584;SDS011;60618;40.084;32.908;2023-05-02T08:38:43;5.28;;;1.10;;
72584;SDS011;60618;40.084;32.908;2023-05-02T08:41:14;3.10;;;1.20;;
72584;SDS011;60618;40.084;32.908;2023-05-02T08:43:44;5.38;;;1.33;;
72584;SDS011;60618;40.084;32.908;2023-05-02T08:46:12;4.07;;;1.30;;
72584;SDS011;60618;40.084;32.908;2023-05-02T08:48:41;4.23;;;1.30;;
72584;SDS011;60618;40.084;32.908;2023-05-02T08:51:10;2.95;;;1.20;;
72584;SDS011;60618;40.084;32.908;2023-05-02T08:53:39;3.55;;;1.00;;
72584;SDS011;60618;40.084;32.908;2023-05-02T08:56:07;5.53;;;1.30;;
72584;SDS011;60618;40.084;32.908;2023-05-02T08:58:35;4.20;;;1.30;;
72584;SDS011;60618;40.084;32.908;2023-05-02T09:01:16;3.40;;;1.30;;
72584;SDS011;60618;40.084;32.908;2023-05-02T09:03:45;3.60;;;1.30;;
72584;SDS011;60618;40.084;32.908;2023-05-02T09:06:18;3.45;;;1.30;;
72584;SDS011;60618;40.084;32.908;2023-05-02T09:08:49;3.08;;;1.27;;
72584;SDS011;60618;40.084;32.908;2023-05-02T09:11:17;3.72;;;1.40;;
72584;SDS011;60618;40.084;32.908;2023-05-02T09:13:45;3.23;;;1.23;;
72584;SDS011;60618;40.084;32.908;2023-05-02T09:16:15;5.10;;;1.30;;
72584;SDS011;60618;40.084;32.908;2023-05-02T09:18:47;5.32;;;1.30;;
72584;SDS011;60618;40.084;32.908;2023-05-02T09:23:47;3.80;;;1.10;;
72584;SDS011;60618;40.084;32.908;2023-05-02T09:26:22;3.40;;;1.20;;
72584;SDS011;60618;40.084;32.908;2023-05-02T09:28:52;4.45;;;1.25;;
72584;SDS011;60618;40.084;32.908;2023-05-02T09:31:21;3.50;;;1.30;;
72584;SDS011;60618;40.084;32.908;2023-05-02T09:34:12;3.88;;;1.20;;
72584;SDS011;60618;40.084;32.908;2023-05-02T09:36:42;3.70;;;1.50;;
72584;SDS011;60618;40.084;32.908;2023-05-02T09:39:14;3.20;;;1.20;;
72584;SDS011;60618;40.084;32.908;2023-05-02T09:41:43;5.15;;;1.30;;
72584;SDS011;60618;40.084;32.908;2023-05-02T09:44:14;5.25;;;1.20;;
72584;SDS011;60618;40.084;32.908;2023-05-02T09:46:46;3.65;;;1.20;;
72584;SDS011;60618;40.084;32.908;2023-05-02T09:49:14;4.57;;;1.30;;
72584;SDS011;60618;40.084;32.908;2023-05-02T09:51:42;6.83;;;1.30;;
72584;SDS011;60618;40.084;32.908;2023-05-02T09:54:09;4.07;;;1.38;;
72584;SDS011;60618;40.084;32.908;2023-05-02T09:56:52;4.03;;;1.40;;
72584;SDS011;60618;40.084;32.908;2023-05-02T09:59:19;3.30;;;1.27;;
72584;SDS011;60618;40.084;32.908;2023-05-02T10:01:52;5.10;;;1.48;;
72584;SDS011;60618;40.084;32.908;2023-05-02T10:04:21;3.37;;;1.20;;
72584;SDS011;60618;40.084;32.908;2023-05-02T10:06:48;3.15;;;1.33;;
72584;SDS011;60618;40.084;32.908;2023-05-02T10:09:18;3.53;;;1.40;;
72584;SDS011;60618;40.084;32.908;2023-05-02T10:11:50;3.97;;;1.40;;
72584;SDS011;60618;40.084;32.908;2023-05-02T10:14:19;4.22;;;1.52;;
72584;SDS011;60618;40.084;32.908;2023-05-02T10:17:03;5.47;;;1.40;;
72584;SDS011;60618;40.084;32.908;2023-05-02T10:22:03;3.78;;;1.23;;
72584;SDS011;60618;40.084;32.908;2023-05-02T10:24:31;3.50;;;1.30;;
72584;SDS011;60618;40.084;32.908;2023-05-02T10:26:58;3.97;;;1.30;;
72584;SDS011;60618;40.084;32.908;2023-05-02T10:29:29;8.73;;;1.47;;
72584;SDS011;60618;40.084;32.908;2023-05-02T10:31:57;4.82;;;1.27;;
72584;SDS011;60618;40.084;32.908;2023-05-02T10:34:28;4.93;;;1.85;;
72584;SDS011;60618;40.084;32.908;2023-05-02T10:36:58;5.72;;;1.60;;
72584;SDS011;60618;40.084;32.908;2023-05-02T10:39:25;4.00;;;1.40;;
72584;SDS011;60618;40.084;32.908;2023-05-02T10:41:54;3.60;;;1.30;;
72584;SDS011;60618;40.084;32.908;2023-05-02T10:49:56;4.20;;;1.35;;
72584;SDS011;60618;40.084;32.908;2023-05-02T10:52:28;4.63;;;1.30;;
72584;SDS011;60618;40.084;32.908;2023-05-02T11:00:25;3.78;;;1.40;;
72584;SDS011;60618;40.084;32.908;2023-05-02T11:03:00;9.07;;;1.58;;
72584;SDS011;60618;40.084;32.908;2023-05-02T11:05:28;5.55;;;1.50;;
72584;SDS011;60618;40.084;32.908;2023-05-02T11:10:40;4.10;;;1.40;;
72584;SDS011;60618;40.084;32.908;2023-05-02T11:13:09;3.45;;;1.40;;
72584;SDS011;60618;40.084;32.908;2023-05-02T11:18:09;4.72;;;1.88;;
72584;SDS011;60618;40.084;32.908;2023-05-02T11:20:41;4.40;;;2.10;;
72584;SDS011;60618;40.084;32.908;2023-05-02T11:25:45;3.83;;;1.42;;
72584;SDS011;60618;40.084;32.908;2023-05-02T11:33:59;6.90;;;1.50;;
72584;SDS011;60618;40.084;32.908;2023-05-02T11:36:28;4.90;;;1.70;;
72584;SDS011;60618;40.084;32.908;2023-05-02T11:38:59;4.72;;;1.52;;
72584;SDS011;60618;40.084;32.908;2023-05-02T11:41:39;4.32;;;1.58;;
72584;SDS011;60618;40.084;32.908;2023-05-02T11:44:15;4.05;;;1.65;;
72584;SDS011;60618;40.084;32.908;2023-05-02T11:46:42;4.60;;;1.50;;
72584;SDS011;60618;40.084;32.908;2023-05-02T11:49:12;4.22;;;1.52;;
72584;SDS011;60618;40.084;32.908;2023-05-02T11:51:40;4.28;;;1.50;;
72584;SDS011;60618;40.084;32.908;2023-05-02T11:54:07;4.57;;;1.60;;
72584;SDS011;60618;40.084;32.908;2023-05-02T11:56:34;3.85;;;1.70;;
72584;SDS011;60618;40.084;32.908;2023-05-02T11:59:01;3.80;;;1.77;;
72584;SDS011;60618;40.084;32.908;2023-05-02T12:01:29;3.53;;;1.40;;
72584;SDS011;60618;40.084;32.908;2023-05-02T12:04:06;6.25;;;1.50;;
72584;SDS011;60618;40.084;32.908;2023-05-02T12:06:36;6.05;;;1.60;;
72584;SDS011;60618;40.084;32.908;2023-05-02T12:09:06;4.82;;;1.40;;
72584;SDS011;60618;40.084;32.908;2023-05-02T12:11:34;4.90;;;1.70;;
72584;SDS011;60618;40.084;32.908;2023-05-02T12:14:01;4.07;;;1.70;;
72584;SDS011;60618;40.084;32.908;2023-05-02T12:16:29;5.65;;;1.92;;
72584;SDS011;60618;40.084;32.908;2023-05-02T12:18:57;5.25;;;1.70;;
72584;SDS011;60618;40.084;32.908;2023-05-02T12:21:24;3.53;;;1.50;;
72584;SDS011;60618;40.084;32.908;2023-05-02T12:23:54;6.83;;;2.00;;
72584;SDS011;60618;40.084;32.908;2023-05-02T12:26:22;4.30;;;1.75;;
72584;SDS011;60618;40.084;32.908;2023-05-02T12:28:52;5.18;;;1.80;;
72584;SDS011;60618;40.084;32.908;2023-05-02T12:31:20;4.55;;;1.67;;
72584;SDS011;60618;40.084;32.908;2023-05-02T12:33:48;4.25;;;1.70;;
72584;SDS011;60618;40.084;32.908;2023-05-02T12:36:15;4.00;;;1.70;;
72584;SDS011;60618;40.084;32.908;2023-05-02T12:38:55;4.78;;;1.90;;
72584;SDS011;60618;40.084;32.908;2023-05-02T12:41:34;4.47;;;2.00;;
72584;SDS011;60618;40.084;32.908;2023-05-02T12:44:02;5.43;;;2.13;;
72584;SDS011;60618;40.084;32.908;2023-05-02T12:46:30;7.00;;;2.25;;
72584;SDS011;60618;40.084;32.908;2023-05-02T12:49:04;4.57;;;2.13;;
72584;SDS011;60618;40.084;32.908;2023-05-02T12:51:32;5.65;;;2.30;;
72584;SDS011;60618;40.084;32.908;2023-05-02T12:54:00;5.47;;;2.30;;
72584;SDS011;60618;40.084;32.908;2023-05-02T12:56:27;5.43;;;2.38;;
72584;SDS011;60618;40.084;32.908;2023-05-02T12:58:54;5.78;;;2.25;;
72584;SDS011;60618;40.084;32.908;2023-05-02T13:01:21;8.30;;;2.30;;
72584;SDS011;60618;40.084;32.908;2023-05-02T13:03:49;5.80;;;2.08;;
72584;SDS011;60618;40.084;32.908;2023-05-02T13:06:17;4.80;;;2.28;;
72584;SDS011;60618;40.084;32.908;2023-05-02T13:08:44;5.32;;;2.20;;
72584;SDS011;60618;40.084;32.908;2023-05-02T13:11:10;7.00;;;2.20;;
72584;SDS011;60618;40.084;32.908;2023-05-02T13:13:44;6.10;;;1.90;;
72584;SDS011;60618;40.084;32.908;2023-05-02T13:16:11;9.95;;;2.28;;
72584;SDS011;60618;40.084;32.908;2023-05-02T13:18:38;7.03;;;2.20;;
72584;SDS011;60618;40.084;32.908;2023-05-02T13:21:05;5.28;;;1.95;;
72584;SDS011;60618;40.084;32.908;2023-05-02T13:23:32;4.38;;;2.08;;
72584;SDS011;60618;40.084;32.908;2023-05-02T13:25:59;6.23;;;2.20;;
72584;SDS011;60618;40.084;32.908;2023-05-02T13:28:26;6.63;;;1.80;;
72584;SDS011;60618;40.084;32.908;2023-05-02T13:30:53;8.13;;;2.20;;
72584;SDS011;60618;40.084;32.908;2023-05-02T13:33:20;7.20;;;2.03;;
72584;SDS011;60618;40.084;32.908;2023-05-02T13:35:47;5.55;;;2.25;;
72584;SDS011;60618;40.084;32.908;2023-05-02T13:38:14;5.67;;;2.10;;
72584;SDS011;60618;40.084;32.908;2023-05-02T13:40:40;5.25;;;2.10;;
72584;SDS011;60618;40.084;32.908;2023-05-02T13:43:07;5.43;;;2.25;;
72584;SDS011;60618;40.084;32.908;2023-05-02T13:45:34;5.95;;;2.20;;
72584;SDS011;60618;40.084;32.908;2023-05-02T13:48:01;6.22;;;2.10;;
72584;SDS011;60618;40.084;32.908;2023-05-02T13:50:28;4.60;;;2.20;;
72584;SDS011;60618;40.084;32.908;2023-05-02T13:52:55;5.07;;;2.20;;
72584;SDS011;60618;40.084;32.908;2023-05-02T13:55:22;7.00;;;2.42;;
72584;SDS011;60618;40.084;32.908;2023-05-02T13:57:49;5.75;;;2.10;;
72584;SDS011;60618;40.084;32.908;2023-05-02T14:00:16;6.32;;;1.90;;
72584;SDS011;60618;40.084;32.908;2023-05-02T14:02:43;5.53;;;2.10;;
72584;SDS011;60618;40.084;32.908;2023-05-02T14:05:10;5.97;;;1.80;;
72584;SDS011;60618;40.084;32.908;2023-05-02T14:07:36;5.07;;;1.73;;
72584;SDS011;60618;40.084;32.908;2023-05-02T14:10:04;5.03;;;1.70;;
72584;SDS011;60618;40.084;32.908;2023-05-02T14:12:31;5.43;;;1.90;;
72584;SDS011;60618;40.084;32.908;2023-05-02T14:14:58;3.70;;;1.60;;
72584;SDS011;60618;40.084;32.908;2023-05-02T14:17:25;4.10;;;1.50;;
72584;SDS011;60618;40.084;32.908;2023-05-02T14:19:52;4.43;;;1.60;;
72584;SDS011;60618;40.084;32.908;2023-05-02T14:22:18;4.65;;;1.50;;
72584;SDS011;60618;40.084;32.908;2023-05-02T14:24:45;4.28;;;1.67;;
72584;SDS011;60618;40.084;32.908;2023-05-02T14:27:12;5.23;;;2.20;;
72584;SDS011;60618;40.084;32.908;2023-05-02T14:29:39;5.00;;;1.77;;
72584;SDS011;60618;40.084;32.908;2023-05-02T14:32:06;7.93;;;2.65;;
72584;SDS011;60618;40.084;32.908;2023-05-02T14:34:33;5.13;;;1.80;;
72584;SDS011;60618;40.084;32.908;2023-05-02T14:37:00;4.78;;;1.40;;
72584;SDS011;60618;40.084;32.908;2023-05-02T14:39:27;3.37;;;1.20;;
72584;SDS011;60618;40.084;32.908;2023-05-02T14:41:53;5.03;;;1.13;;
72584;SDS011;60618;40.084;32.908;2023-05-02T14:44:20;4.03;;;1.20;;
72584;SDS011;60618;40.084;32.908;2023-05-02T14:46:47;3.33;;;1.20;;
72584;SDS011;60618;40.084;32.908;2023-05-02T14:49:14;3.42;;;1.20;;
72584;SDS011;60618;40.084;32.908;2023-05-02T14:51:41;7.30;;;1.43;;
72584;SDS011;60618;40.084;32.908;2023-05-02T14:54:08;3.33;;;1.20;;
72584;SDS011;60618;40.084;32.908;2023-05-02T14:56:35;4.32;;;1.52;;
72584;SDS011;60618;40.084;32.908;2023-05-02T14:59:02;3.95;;;1.30;;
72584;SDS011;60618;40.084;32.908;2023-05-02T15:01:29;2.85;;;1.05;;
72584;SDS011;60618;40.084;32.908;2023-05-02T15:03:56;3.63;;;1.30;;
72584;SDS011;60618;40.084;32.908;2023-05-02T15:06:32;3.47;;;1.10;;
72584;SDS011;60618;40.084;32.908;2023-05-02T15:09:00;4.57;;;1.40;;
72584;SDS011;60618;40.084;32.908;2023-05-02T15:11:27;4.38;;;1.10;;
72584;SDS011;60618;40.084;32.908;2023-05-02T15:13:54;5.40;;;1.40;;
72584;SDS011;60618;40.084;32.908;2023-05-02T15:16:24;6.27;;;2.03;;
72584;SDS011;60618;40.084;32.908;2023-05-02T15:18:51;5.70;;;2.05;;
72584;SDS011;60618;40.084;32.908;2023-05-02T15:21:18;6.15;;;1.88;;
72584;SDS011;60618;40.084;32.908;2023-05-02T15:23:45;4.75;;;1.90;;
72584;SDS011;60618;40.084;32.908;2023-05-02T15:26:12;3.92;;;1.80;;